Terminal Aerodrome Forecast
Issued by NWS Chicago, IL

Home | Current Version | Previous Version | Graphics & Text | Print | Product List | Glossary On
Versions: 1 2 3 4 5 6 7 8 9 10 11 12 13 14 15 16 17 18 19 20 21 22 23 24 25 26 27 28 29 30 31 32
127
FTUS43 KLOT 162222 AAB
TAFRFD
TAF AMD
KRFD 162222Z 1622/1718 09010KT 1 1/2SM SHRA BR OVC003
      TEMPO 1701/1703 10012KT 1/2SM -TSRA FG OVC003CB
     FM170300 VRB03KT 3/4SM -RADZ BR OVC003
     FM171300 30006KT 2SM BR VCSH OVC004
     FM171700 30008KT P6SM VCSH OVC005=

USA.gov is the U.S. government's official web portal to all federal, state and local government web resources and services.